Time;durP1;ratioP1;P1;durP2;ratioP2;P2;SDS_P1;SDS_P2;PMS_P1;PMS_P2;Temp;Humidity;BMP_temperature;BMP_pressure;BME280_temperature;BME280_humidity;BME280_pressure;Samples;Min_cycle;Max_cycle;Signal;HPM_P1;HPM_P2
2021/01/14 00:01:09;;;;;;;47.20;22.90;;;-0.90;99.90;;;;;;5033091;28;20492;-46
2021/01/14 00:03:35;;;;;;;42.78;22.10;;;-1.00;99.90;;;;;;5032078;28;20064;-47
2021/01/14 00:06:08;;;;;;;40.42;19.90;;;-1.00;99.90;;;;;;5028463;28;20053;-46
2021/01/14 00:08:35;;;;;;;42.72;21.42;;;-1.00;99.90;;;;;;5029591;28;20056;-47
2021/01/14 00:11:02;;;;;;;49.15;20.02;;;-1.10;99.90;;;;;;5012755;28;20487;-46
2021/01/14 00:13:29;;;;;;;40.85;21.38;;;-1.10;99.90;;;;;;5027106;28;20056;-47
2021/01/14 00:15:55;;;;;;;46.92;24.80;;;-1.30;99.90;;;;;;5022290;28;20479;-47
2021/01/14 00:18:21;;;;;;;41.08;21.92;;;-1.30;99.90;;;;;;5028871;28;20368;-47
2021/01/14 00:20:48;;;;;;;50.35;22.80;;;-1.60;99.90;;;;;;5031473;28;20056;-47
2021/01/14 00:23:15;;;;;;;55.05;20.10;;;-1.70;99.90;;;;;;5031262;28;20049;-46
2021/01/14 00:25:41;;;;;;;73.10;20.58;;;-1.70;99.90;;;;;;5029994;28;20119;-47
2021/01/14 00:28:08;;;;;;;37.75;19.85;;;-1.70;99.90;;;;;;5020803;28;20049;-46
2021/01/14 00:30:34;;;;;;;42.20;19.20;;;-1.70;99.90;;;;;;5028914;28;20069;-47
2021/01/14 00:33:01;;;;;;;47.05;19.13;;;-1.70;99.90;;;;;;5030565;28;20060;-46
2021/01/14 00:35:28;;;;;;;35.38;16.25;;;-1.70;99.90;;;;;;5023990;28;20057;-47
2021/01/14 00:37:55;;;;;;;51.75;21.70;;;-1.60;99.90;;;;;;5021030;28;20057;-47
2021/01/14 00:40:31;;;;;;;42.08;19.48;;;-1.60;99.90;;;;;;5031632;28;20052;-46
2021/01/14 00:43:08;;;;;;;33.90;17.38;;;-1.50;99.90;;;;;;5028364;28;20056;-47
2021/01/14 00:45:35;;;;;;;30.58;17.20;;;-1.50;99.90;;;;;;5016384;28;20069;-47
2021/01/14 00:48:03;;;;;;;41.90;22.35;;;-1.50;99.90;;;;;;5026704;28;20049;-47
2021/01/14 00:50:30;;;;;;;34.67;18.35;;;-1.50;99.90;;;;;;5019389;28;20402;-47
2021/01/14 00:52:57;;;;;;;38.05;17.02;;;-1.40;99.90;;;;;;5031093;28;20490;-47
2021/01/14 00:55:23;;;;;;;44.08;18.77;;;-1.40;99.90;;;;;;5030750;28;20049;-47
2021/01/14 00:57:50;;;;;;;31.10;14.80;;;-1.40;99.90;;;;;;5016297;28;20050;-46
2021/01/14 01:00:19;;;;;;;26.67;15.52;;;-1.50;99.90;;;;;;5026849;28;20050;-47
2021/01/14 01:02:48;;;;;;;25.45;14.00;;;-1.30;99.90;;;;;;5013970;28;20049;-47
2021/01/14 01:05:16;;;;;;;24.23;13.85;;;-1.40;99.90;;;;;;5031475;28;20059;-47
2021/01/14 01:07:57;;;;;;;22.98;13.00;;;-1.40;99.90;;;;;;5024809;28;20061;-47
2021/01/14 01:10:24;;;;;;;37.40;19.42;;;-1.30;99.90;;;;;;5017347;28;20080;-47
2021/01/14 01:12:55;;;;;;;44.05;20.25;;;-1.50;99.90;;;;;;5022832;28;20053;-47
2021/01/14 01:15:24;;;;;;;74.10;22.30;;;-1.60;99.90;;;;;;5029784;28;20494;-47
2021/01/14 01:17:50;;;;;;;48.95;20.63;;;-1.60;99.90;;;;;;5030602;28;20441;-46
2021/01/14 01:20:17;;;;;;;40.20;19.17;;;-1.80;99.90;;;;;;5028027;28;20048;-46
2021/01/14 01:22:44;;;;;;;114.55;23.27;;;-2.00;99.90;;;;;;5026462;28;20525;-46
2021/01/14 01:25:11;;;;;;;43.28;19.27;;;-2.00;99.90;;;;;;5020986;28;20390;-47
2021/01/14 01:27:38;;;;;;;42.00;17.80;;;-2.00;99.90;;;;;;5017802;28;20049;-47
2021/01/14 01:30:08;;;;;;;35.05;17.90;;;-2.00;99.90;;;;;;5027156;28;20049;-47
2021/01/14 01:32:35;;;;;;;39.75;19.52;;;-1.90;99.90;;;;;;5030298;28;20037;-47
2021/01/14 01:35:03;;;;;;;48.58;16.67;;;-1.90;99.90;;;;;;5026801;28;20048;-47
2021/01/14 01:37:30;;;;;;;71.22;18.25;;;-1.80;99.90;;;;;;5014626;28;20386;-47
2021/01/14 01:39:58;;;;;;;98.03;16.48;;;-1.90;99.90;;;;;;5028163;28;20069;-46
2021/01/14 01:42:24;;;;;;;76.47;12.75;;;-2.00;99.90;;;;;;5024152;28;20060;-47
2021/01/14 01:44:51;;;;;;;38.47;13.05;;;-2.00;99.90;;;;;;5022616;28;20060;-47
2021/01/14 01:47:18;;;;;;;40.10;16.83;;;-1.90;99.90;;;;;;5028540;28;20402;-47
2021/01/14 01:49:45;;;;;;;96.30;38.58;;;-1.80;99.90;;;;;;5030344;28;20049;-47
2021/01/14 01:52:12;;;;;;;51.88;22.60;;;-1.70;99.90;;;;;;5026095;28;20118;-47
2021/01/14 01:54:38;;;;;;;31.05;16.80;;;-1.80;99.90;;;;;;5029417;28;20112;-46
2021/01/14 01:57:05;;;;;;;30.20;15.13;;;-1.90;99.90;;;;;;5026384;28;20049;-47
2021/01/14 01:59:32;;;;;;;28.90;14.70;;;-1.90;99.90;;;;;;5029144;28;20049;-47
2021/01/14 02:02:21;;;;;;;31.02;14.85;;;-2.00;99.90;;;;;;5029600;28;20057;-47
2021/01/14 02:04:48;;;;;;;43.80;18.95;;;-2.00;99.90;;;;;;5028162;28;20483;-49
2021/01/14 02:07:23;;;;;;;44.95;19.60;;;-2.00;99.90;;;;;;5025684;28;20061;-47
2021/01/14 02:09:52;;;;;;;52.15;20.60;;;-2.00;99.90;;;;;;5029205;28;20616;-47
2021/01/14 02:12:23;;;;;;;32.13;17.17;;;-2.00;99.90;;;;;;5027445;28;20058;-47
2021/01/14 02:14:56;;;;;;;42.17;18.40;;;-2.00;99.90;;;;;;5028549;28;20415;-46
2021/01/14 02:17:26;;;;;;;56.53;24.00;;;-2.00;99.90;;;;;;5027937;28;20045;-47
2021/01/14 02:19:54;;;;;;;34.72;19.08;;;-1.90;99.90;;;;;;5019453;28;20041;-46
2021/01/14 02:22:29;;;;;;;40.28;18.30;;;-1.90;99.90;;;;;;5029208;28;20061;-47
2021/01/14 02:25:11;;;;;;;39.90;18.45;;;-1.90;99.90;;;;;;5029815;28;20050;-47
2021/01/14 02:27:39;;;;;;;36.22;18.00;;;-1.80;99.90;;;;;;5018508;28;20050;-47
2021/01/14 02:30:10;;;;;;;37.33;18.67;;;-1.70;99.90;;;;;;5023749;28;20415;-47
2021/01/14 02:32:37;;;;;;;33.72;17.30;;;-1.70;99.90;;;;;;5016939;28;20057;-46
2021/01/14 02:35:05;;;;;;;33.53;18.70;;;-1.60;99.90;;;;;;5031118;28;20576;-47
2021/01/14 02:37:31;;;;;;;59.88;22.65;;;-1.60;99.90;;;;;;5017095;28;20058;-47
2021/01/14 02:39:58;;;;;;;56.60;23.85;;;-1.60;99.90;;;;;;5032824;28;20038;-47
2021/01/14 02:42:24;;;;;;;76.35;23.48;;;-1.70;99.90;;;;;;5032563;28;20064;-47
2021/01/14 02:44:51;;;;;;;67.03;20.33;;;-1.80;99.90;;;;;;5032880;28;20084;-46
2021/01/14 02:47:19;;;;;;;54.13;18.58;;;-1.80;99.90;;;;;;5030924;28;20053;-47
2021/01/14 02:49:57;;;;;;;40.47;16.15;;;-1.80;99.90;;;;;;5032590;28;20057;-46
2021/01/14 02:52:27;;;;;;;48.55;18.10;;;-1.80;99.90;;;;;;5028189;28;20050;-46
2021/01/14 02:54:56;;;;;;;46.53;17.88;;;-1.70;99.90;;;;;;5018968;28;20049;-47
2021/01/14 02:57:26;;;;;;;40.03;18.08;;;-1.70;99.90;;;;;;5032586;28;20049;-47
2021/01/14 02:59:54;;;;;;;35.85;16.95;;;-1.70;99.90;;;;;;5023570;28;20068;-47
2021/01/14 03:02:21;;;;;;;39.20;17.65;;;-1.60;99.90;;;;;;5032276;28;20049;-47
2021/01/14 03:04:48;;;;;;;29.27;13.90;;;-1.60;99.90;;;;;;5032497;28;20060;-46
2021/01/14 03:07:15;;;;;;;22.67;12.27;;;-1.60;99.90;;;;;;5032901;28;20052;-47
2021/01/14 03:09:42;;;;;;;18.15;10.13;;;-1.50;99.90;;;;;;5030574;28;20157;-47
2021/01/14 03:12:08;;;;;;;15.82;9.20;;;-1.50;99.90;;;;;;5018155;28;20060;-46
2021/01/14 03:14:35;;;;;;;19.30;10.55;;;-1.40;99.90;;;;;;5032421;28;20064;-48
2021/01/14 03:17:01;;;;;;;21.75;10.23;;;-1.40;99.90;;;;;;5032621;28;20060;-47
2021/01/14 03:19:28;;;;;;;17.98;9.35;;;-1.30;99.90;;;;;;5020439;28;20049;-47
2021/01/14 03:22:00;;;;;;;17.10;11.02;;;-1.20;99.90;;;;;;5027130;28;20133;-47
2021/01/14 03:24:28;;;;;;;18.97;10.30;;;-1.20;99.90;;;;;;5027657;28;20057;-47
2021/01/14 03:26:55;;;;;;;30.30;14.13;;;-1.20;99.90;;;;;;5029751;28;20291;-47
2021/01/14 03:29:21;;;;;;;30.17;16.20;;;-1.20;99.90;;;;;;5032047;28;20060;-46
2021/01/14 03:31:48;;;;;;;40.35;17.88;;;-1.20;99.90;;;;;;5032611;28;20482;-47
2021/01/14 03:34:15;;;;;;;29.65;16.40;;;-1.30;99.90;;;;;;5030910;28;20801;-48
2021/01/14 03:36:56;;;;;;;37.67;19.23;;;-1.30;99.90;;;;;;5029170;28;20048;-46
2021/01/14 03:39:25;;;;;;;34.92;18.23;;;-1.30;99.90;;;;;;5032299;28;20051;-47
2021/01/14 03:41:52;;;;;;;25.80;11.57;;;-1.30;99.90;;;;;;5014474;28;20056;-47
2021/01/14 03:44:20;;;;;;;33.30;14.70;;;-1.30;99.90;;;;;;5027574;28;20396;-47
2021/01/14 03:46:48;;;;;;;30.35;16.23;;;-1.20;99.90;;;;;;5021586;28;20061;-47
2021/01/14 03:49:14;;;;;;;28.23;14.77;;;-1.20;99.90;;;;;;5021674;28;20479;-46
2021/01/14 03:51:46;;;;;;;29.63;14.27;;;-1.10;99.90;;;;;;5022907;28;20406;-47
2021/01/14 03:54:13;;;;;;;29.40;16.17;;;-1.10;99.90;;;;;;5032162;28;20064;-48
2021/01/14 03:56:41;;;;;;;29.35;14.02;;;-1.10;99.90;;;;;;5030908;28;20442;-46
2021/01/14 03:59:07;;;;;;;32.53;16.58;;;-1.00;99.90;;;;;;5023954;28;20487;-46
2021/01/14 04:01:34;;;;;;;34.40;15.02;;;-1.00;99.90;;;;;;5028212;28;20048;-47
2021/01/14 04:04:01;;;;;;;24.92;14.00;;;-1.00;99.90;;;;;;5018727;28;20399;-47
2021/01/14 04:06:37;;;;;;;29.13;14.30;;;-1.00;99.90;;;;;;5032135;28;20061;-47
2021/01/14 04:09:05;;;;;;;22.73;13.82;;;-1.00;99.90;;;;;;5032193;28;20049;-47
2021/01/14 04:11:32;;;;;;;27.50;15.38;;;-1.00;99.90;;;;;;5031483;28;20049;-48
2021/01/14 04:14:00;;;;;;;26.35;14.27;;;-0.90;99.90;;;;;;5029501;28;20060;-47
2021/01/14 04:16:26;;;;;;;28.50;14.55;;;-0.90;99.90;;;;;;5019107;28;20128;-47
2021/01/14 04:18:53;;;;;;;26.13;14.05;;;-0.90;99.90;;;;;;5031087;28;20049;-47
2021/01/14 04:21:19;;;;;;;21.50;12.25;;;-0.90;99.90;;;;;;5028946;28;20461;-47
2021/01/14 04:23:46;;;;;;;29.15;13.70;;;-0.90;99.90;;;;;;5021451;28;20049;-47
2021/01/14 04:26:12;;;;;;;23.45;12.68;;;-0.80;99.90;;;;;;5023044;28;20060;-47
2021/01/14 04:28:40;;;;;;;24.05;13.10;;;-0.80;99.90;;;;;;5025286;28;20127;-47
2021/01/14 04:31:07;;;;;;;28.30;15.48;;;-0.80;99.90;;;;;;5029472;28;20060;-47
2021/01/14 04:33:33;;;;;;;22.10;12.68;;;-0.80;99.90;;;;;;5014811;28;20041;-47
2021/01/14 04:36:01;;;;;;;26.25;14.68;;;-0.80;99.90;;;;;;5026867;28;20049;-47
2021/01/14 04:38:28;;;;;;;24.95;15.00;;;-0.70;99.90;;;;;;5028872;28;20479;-47
2021/01/14 04:41:00;;;;;;;30.55;15.48;;;-0.70;99.90;;;;;;5020020;28;20056;-47
2021/01/14 04:43:29;;;;;;;27.92;15.63;;;-0.70;99.90;;;;;;5023916;28;20057;-46
2021/01/14 04:46:04;;;;;;;30.20;15.20;;;-0.70;99.90;;;;;;5029343;28;20049;-49
2021/01/14 04:48:35;;;;;;;30.33;16.83;;;-0.60;99.90;;;;;;5028997;28;20056;-47
2021/01/14 04:51:12;;;;;;;27.17;15.35;;;-0.60;99.90;;;;;;5030079;28;20053;-48
2021/01/14 04:53:41;;;;;;;23.95;12.65;;;-0.60;99.90;;;;;;5021550;28;20037;-47
2021/01/14 04:56:10;;;;;;;37.13;17.90;;;-0.50;99.90;;;;;;5020503;28;20052;-47
2021/01/14 04:58:39;;;;;;;36.60;17.65;;;-0.60;99.90;;;;;;5018484;28;20056;-47
2021/01/14 05:01:21;;;;;;;30.33;17.58;;;-0.60;99.90;;;;;;5026350;28;20462;-47
2021/01/14 05:03:49;;;;;;;34.33;17.88;;;-0.50;99.90;;;;;;5013811;28;20049;-48
2021/01/14 05:06:21;;;;;;;27.48;15.05;;;-0.60;99.90;;;;;;5030486;28;20049;-47
2021/01/14 05:08:50;;;;;;;33.40;16.52;;;-0.60;99.90;;;;;;5029282;28;20045;-46
2021/01/14 05:11:18;;;;;;;31.38;16.75;;;-0.60;99.90;;;;;;5030917;28;20057;-46
2021/01/14 05:13:47;;;;;;;31.35;17.25;;;-0.60;99.90;;;;;;5028694;28;20057;-47
2021/01/14 05:16:14;;;;;;;35.10;17.90;;;-0.60;99.90;;;;;;5030798;28;20057;-46
2021/01/14 05:18:41;;;;;;;25.42;15.50;;;-0.60;99.90;;;;;;5027894;28;20049;-47
2021/01/14 05:21:08;;;;;;;25.58;13.85;;;-0.60;99.90;;;;;;5028942;28;20049;-47
2021/01/14 05:23:35;;;;;;;24.15;14.13;;;-0.60;99.90;;;;;;5022311;28;20483;-47
2021/01/14 05:26:02;;;;;;;22.63;13.00;;;-0.50;99.90;;;;;;5020840;28;20057;-48
2021/01/14 05:28:30;;;;;;;29.58;16.30;;;-0.50;99.90;;;;;;5029632;28;20053;-47
2021/01/14 05:31:16;;;;;;;28.05;13.05;;;-0.50;99.90;;;;;;5028779;28;20050;-47
2021/01/14 05:33:56;;;;;;;24.00;13.15;;;-0.50;99.90;;;;;;5018651;28;20494;-47
2021/01/14 05:36:23;;;;;;;23.88;14.70;;;-0.50;99.90;;;;;;5023295;28;20046;-47
2021/01/14 05:38:51;;;;;;;25.50;13.57;;;-0.40;99.90;;;;;;5024166;28;20596;-48
2021/01/14 05:41:28;;;;;;;17.60;11.30;;;-0.40;99.90;;;;;;5017254;28;20065;-47
2021/01/14 05:43:55;;;;;;;25.83;12.50;;;-0.30;99.90;;;;;;5024196;28;20064;-47
2021/01/14 05:46:33;;;;;;;33.40;17.20;;;-0.30;99.90;;;;;;5027620;28;20555;-47
2021/01/14 05:49:02;;;;;;;28.27;16.52;;;-0.30;99.90;;;;;;5028420;28;20121;-47
2021/01/14 05:51:33;;;;;;;36.17;19.23;;;-0.30;99.90;;;;;;5057192;28;20045;-47
2021/01/14 05:54:04;;;;;;;35.47;18.88;;;-0.30;99.90;;;;;;5019052;28;20502;-48
2021/01/14 05:56:43;;;;;;;40.08;20.13;;;-0.40;99.90;;;;;;5022326;28;20825;-48
2021/01/14 05:59:15;;;;;;;38.53;20.63;;;-0.40;99.90;;;;;;5023955;28;20052;-47
2021/01/14 06:01:57;;;;;;;37.10;21.55;;;-0.30;99.90;;;;;;5025606;28;20411;-47
2021/01/14 06:04:26;;;;;;;40.10;23.92;;;-0.40;99.90;;;;;;5024662;28;20060;-50
2021/01/14 06:06:54;;;;;;;31.20;18.92;;;-0.50;99.90;;;;;;5019972;28;20058;-47
2021/01/14 06:09:22;;;;;;;28.08;17.42;;;-0.50;99.90;;;;;;5023103;28;20064;-47
2021/01/14 06:11:51;;;;;;;30.02;16.73;;;-0.50;99.90;;;;;;5028828;28;20056;-47
2021/01/14 06:14:26;;;;;;;32.00;17.23;;;-0.30;99.90;;;;;;5026524;28;20057;-47
2021/01/14 06:16:53;;;;;;;29.50;17.17;;;-0.20;99.90;;;;;;5025151;28;20050;-48
2021/01/14 06:19:24;;;;;;;23.40;14.15;;;-0.20;99.90;;;;;;5028337;28;20061;-48
2021/01/14 06:21:55;;;;;;;26.65;14.63;;;0.10;99.90;;;;;;5023881;28;20060;-47
2021/01/14 06:24:29;;;;;;;27.98;14.75;;;0.10;99.90;;;;;;5027702;28;20053;-47
2021/01/14 06:27:08;;;;;;;23.75;12.45;;;0.00;99.90;;;;;;5022558;28;20057;-47
2021/01/14 06:29:36;;;;;;;28.50;14.90;;;0.40;99.90;;;;;;5026907;28;20056;-49
2021/01/14 06:32:12;;;;;;;33.53;16.67;;;0.50;99.90;;;;;;5023469;28;20390;-50
2021/01/14 06:34:41;;;;;;;36.28;18.15;;;0.40;99.90;;;;;;5017005;28;20071;-53
2021/01/14 06:37:12;;;;;;;40.97;20.98;;;0.20;99.90;;;;;;5018928;28;20049;-54
2021/01/14 06:39:40;;;;;;;28.98;16.45;;;-0.10;99.90;;;;;;5024917;28;20038;-50
2021/01/14 06:42:14;;;;;;;27.30;15.60;;;-0.10;99.90;;;;;;5019312;28;20046;-53
2021/01/14 06:44:49;;;;;;;34.10;18.23;;;0.30;99.90;;;;;;5028209;28;20042;-50
2021/01/14 06:47:39;;;;;;;29.75;17.10;;;0.20;99.90;;;;;;5027022;28;20053;-50
2021/01/14 06:50:25;;;;;;;40.38;18.88;;;0.00;99.90;;;;;;5028871;28;20053;-50
2021/01/14 06:52:55;;;;;;;30.77;15.63;;;0.00;99.90;;;;;;5024262;28;20053;-51
2021/01/14 06:55:26;;;;;;;29.30;16.85;;;-0.10;99.90;;;;;;5028444;28;20375;-50
2021/01/14 06:58:15;;;;;;;25.15;14.95;;;-0.10;99.90;;;;;;5022088;28;20442;-54
2021/01/14 07:00:47;;;;;;;35.67;18.30;;;0.10;99.90;;;;;;5017193;28;20049;-50
2021/01/14 07:03:16;;;;;;;34.38;19.45;;;0.10;99.90;;;;;;5029834;28;20057;-50
2021/01/14 07:05:52;;;;;;;44.65;27.15;;;0.00;99.90;;;;;;5027779;28;20081;-50
2021/01/14 07:08:37;;;;;;;35.42;19.70;;;0.00;99.90;;;;;;5011713;28;20060;-50
2021/01/14 07:11:04;;;;;;;24.02;14.75;;;0.10;99.90;;;;;;5027856;28;20060;-50
2021/01/14 07:13:45;;;;;;;22.90;12.15;;;0.20;99.90;;;;;;5028915;28;20048;-50
2021/01/14 07:16:17;;;;;;;34.17;18.10;;;0.40;99.90;;;;;;5029335;28;20072;-54
2021/01/14 07:18:44;;;;;;;38.58;19.25;;;0.60;99.90;;;;;;5032228;28;20053;-50
2021/01/14 07:21:25;;;;;;;44.92;27.35;;;0.60;99.90;;;;;;5031964;28;20045;-51
2021/01/14 07:24:28;;;;;;;36.78;21.45;;;0.60;99.90;;;;;;5025952;28;20070;-53
2021/01/14 07:27:00;;;;;;;41.35;24.73;;;0.80;99.90;;;;;;5024337;28;20053;-54
2021/01/14 07:29:30;;;;;;;47.80;24.17;;;0.80;99.90;;;;;;5032598;28;20802;-50
2021/01/14 07:31:59;;;;;;;33.50;19.83;;;0.80;99.90;;;;;;5030407;28;20100;-51
2021/01/14 07:34:36;;;;;;;55.45;26.95;;;0.90;99.90;;;;;;5031926;28;20422;-50
2021/01/14 07:37:12;;;;;;;34.17;20.52;;;0.70;99.90;;;;;;5023062;28;20462;-53
2021/01/14 07:39:48;;;;;;;38.05;19.38;;;0.50;99.90;;;;;;5024327;28;20077;-54
2021/01/14 07:42:31;;;;;;;26.38;13.23;;;0.60;99.90;;;;;;5032396;28;20367;-50
2021/01/14 07:45:01;;;;;;;40.50;20.70;;;0.80;99.90;;;;;;5030578;28;20616;-54
2021/01/14 07:47:35;;;;;;;36.10;20.05;;;1.20;99.90;;;;;;5032708;28;20052;-53
2021/01/14 07:50:24;;;;;;;37.15;21.85;;;0.90;99.90;;;;;;5031180;28;20056;-50
2021/01/14 07:52:56;;;;;;;22.17;10.45;;;0.60;99.90;;;;;;5032035;28;20045;-50
2021/01/14 07:55:36;;;;;;;26.52;12.20;;;0.70;99.90;;;;;;5022905;28;20052;-50
2021/01/14 07:58:13;;;;;;;34.92;19.20;;;1.20;99.90;;;;;;5027263;28;20038;-50
2021/01/14 08:00:40;;;;;;;22.73;13.40;;;1.10;99.90;;;;;;5018914;28;20053;-51
2021/01/14 08:03:14;;;;;;;22.17;12.52;;;1.30;99.90;;;;;;5032578;28;20449;-49
2021/01/14 08:05:57;;;;;;;23.05;13.23;;;1.40;99.90;;;;;;5031044;28;20414;-50
2021/01/14 08:08:37;;;;;;;16.57;12.53;;;1.60;99.90;;;;;;5031338;28;20129;-50
2021/01/14 08:11:11;;;;;;;33.90;18.20;;;1.90;99.90;;;;;;5030541;28;20521;-49
2021/01/14 08:14:20;;;;;;;37.88;22.27;;;2.00;99.90;;;;;;5031168;28;20045;-50
2021/01/14 08:16:50;;;;;;;42.40;22.75;;;1.60;99.90;;;;;;5015050;28;20053;-50
2021/01/14 08:19:33;;;;;;;42.17;21.75;;;1.40;99.90;;;;;;5028380;28;20054;-50
2021/01/14 08:22:02;;;;;;;28.50;14.98;;;1.30;99.90;;;;;;5018653;28;20069;-50
2021/01/14 08:24:39;;;;;;;33.17;18.90;;;1.40;99.90;;;;;;5021469;28;20061;-50
2021/01/14 08:27:08;;;;;;;28.10;18.77;;;1.40;99.90;;;;;;5024269;28;20060;-50
2021/01/14 08:29:46;;;;;;;35.15;19.42;;;1.20;99.90;;;;;;5029669;28;20049;-50
2021/01/14 08:32:35;;;;;;;23.08;11.85;;;1.30;99.90;;;;;;5030830;28;20051;-51
2021/01/14 08:35:30;;;;;;;29.85;17.98;;;1.60;99.90;;;;;;5020411;28;20487;-50
2021/01/14 08:38:14;;;;;;;39.80;19.90;;;1.80;99.90;;;;;;5016561;28;20391;-50
2021/01/14 08:40:41;;;;;;;;;;;1.90;99.90;;;;;;5029129;28;20057;-51
2021/01/14 08:43:14;;;;;;;18.80;9.10;;;1.90;99.90;;;;;;5027203;28;20382;-50
2021/01/14 08:45:47;;;;;;;;;;;2.20;99.90;;;;;;5030891;28;20072;-50
2021/01/14 08:48:21;;;;;;;13.65;7.70;;;2.50;99.90;;;;;;5031173;28;19921;-50
2021/01/14 08:51:08;;;;;;;10.88;7.22;;;2.80;99.90;;;;;;5015888;28;20045;-53
2021/01/14 08:53:36;;;;;;;18.90;11.13;;;3.10;99.90;;;;;;5028316;28;20045;-50
2021/01/14 08:56:16;;;;;;;35.38;19.20;;;3.10;99.90;;;;;;5029924;28;20478;-50
2021/01/14 08:58:47;;;;;;;17.08;9.82;;;2.50;99.90;;;;;;5030430;28;20045;-50
2021/01/14 09:01:22;;;;;;;25.63;14.10;;;2.50;99.90;;;;;;5028322;28;20049;-52
2021/01/14 09:03:51;;;;;;;37.13;22.05;;;2.80;99.90;;;;;;5031011;28;20053;-50
2021/01/14 09:06:32;;;;;;;38.15;20.73;;;2.50;99.90;;;;;;5029089;28;20406;-54
2021/01/14 09:09:02;;;;;;;32.35;18.77;;;2.10;99.90;;;;;;5020877;28;20052;-53
2021/01/14 09:11:30;;;;;;;38.08;22.92;;;2.10;99.90;;;;;;5022568;28;20129;-51
2021/01/14 09:14:04;;;;;;;18.75;10.80;;;2.10;99.90;;;;;;5020462;28;20049;-50
2021/01/14 09:16:31;;;;;;;16.42;8.05;;;2.60;99.90;;;;;;5030749;28;20045;-50
2021/01/14 09:18:58;;;;;;;16.42;9.98;;;3.00;99.90;;;;;;5029056;28;20037;-50
2021/01/14 09:21:25;;;;;;;15.85;7.25;;;3.20;99.90;;;;;;5030773;28;20042;-50
2021/01/14 09:23:52;;;;;;;22.08;10.10;;;3.50;99.90;;;;;;5028086;28;20061;-50
2021/01/14 09:26:20;;;;;;;14.10;7.00;;;3.70;99.90;;;;;;5016376;28;20414;-50
2021/01/14 09:28:52;;;;;;;15.88;6.80;;;3.70;99.90;;;;;;5031542;28;20049;-52
2021/01/14 09:31:20;;;;;;;11.98;6.97;;;3.90;99.90;;;;;;5029785;28;20053;-50
2021/01/14 09:33:50;;;;;;;9.30;5.00;;;4.10;99.90;;;;;;5030708;28;20046;-50
2021/01/14 09:36:18;;;;;;;13.30;5.97;;;4.20;99.90;;;;;;5029754;28;20045;-50
2021/01/14 09:38:56;;;;;;;10.68;6.28;;;4.30;99.90;;;;;;5027792;28;20045;-50
2021/01/14 09:41:35;;;;;;;23.45;12.15;;;4.30;99.90;;;;;;5029370;28;20068;-50
2021/01/14 09:44:04;;;;;;;56.40;30.63;;;4.30;99.90;;;;;;5029547;28;20442;-50
2021/01/14 09:46:39;;;;;;;25.20;13.55;;;3.80;99.90;;;;;;5020567;28;20053;-50
2021/01/14 09:49:11;;;;;;;36.60;19.02;;;3.70;99.90;;;;;;5028277;28;20049;-50
2021/01/14 09:51:38;;;;;;;30.00;18.60;;;3.70;99.90;;;;;;5012072;28;20477;-50
2021/01/14 09:54:07;;;;;;;31.70;18.25;;;3.50;99.90;;;;;;5028913;28;20509;-50
2021/01/14 09:56:42;;;;;;;22.27;10.73;;;3.30;99.90;;;;;;5029191;28;20048;-50
2021/01/14 09:59:42;;;;;;;19.98;13.00;;;3.50;99.90;;;;;;5030487;28;20042;-50
2021/01/14 10:02:14;;;;;;;26.02;13.90;;;3.70;99.90;;;;;;5027480;28;20041;-49
2021/01/14 10:04:59;;;;;;;41.63;24.65;;;3.80;99.90;;;;;;5029338;28;20053;-50
2021/01/14 10:07:26;;;;;;;30.35;15.48;;;3.70;99.90;;;;;;5020414;28;20054;-50
2021/01/14 10:09:54;;;;;;;23.13;14.07;;;3.80;99.90;;;;;;5021119;28;20056;-50
2021/01/14 10:12:21;;;;;;;19.15;11.20;;;3.90;99.90;;;;;;5029228;28;20053;-51
2021/01/14 10:14:47;;;;;;;18.83;9.40;;;3.80;99.90;;;;;;5026640;28;20627;-50
2021/01/14 10:17:17;;;;;;;15.73;9.73;;;3.90;99.90;;;;;;5029603;28;20057;-50
2021/01/14 10:19:47;;;;;;;17.67;9.55;;;4.10;99.90;;;;;;5024665;28;20050;-54
2021/01/14 10:22:14;;;;;;;31.08;18.95;;;4.10;99.90;;;;;;5015553;28;20041;-52
2021/01/14 10:24:41;;;;;;;23.50;13.25;;;4.20;99.90;;;;;;5026718;28;20526;-50
2021/01/14 10:27:21;;;;;;;25.60;13.48;;;4.20;99.90;;;;;;5020052;28;20394;-50
2021/01/14 10:29:48;;;;;;;16.17;6.88;;;4.30;99.90;;;;;;5014136;28;20653;-50
2021/01/14 10:32:23;;;;;;;19.17;9.20;;;4.40;99.90;;;;;;5024215;28;20409;-50
2021/01/14 10:34:52;;;;;;;17.48;8.93;;;4.40;99.90;;;;;;5027915;28;20714;-53
2021/01/14 10:37:30;;;;;;;24.70;15.98;;;4.50;99.90;;;;;;5026366;28;20379;-51
2021/01/14 10:40:18;;;;;;;13.23;6.45;;;4.40;99.90;;;;;;5027546;28;20055;-51
2021/01/14 10:42:49;;;;;;;35.67;20.58;;;4.50;99.90;;;;;;5028388;28;20042;-50
2021/01/14 10:45:29;;;;;;;20.13;12.23;;;4.50;99.90;;;;;;5027698;28;20072;-52
2021/01/14 10:48:15;;;;;;;24.75;16.20;;;4.50;99.90;;;;;;5027380;28;20046;-50
2021/01/14 10:50:56;;;;;;;35.10;21.23;;;4.40;99.90;;;;;;5019932;28;20054;-50
2021/01/14 10:53:27;;;;;;;44.38;25.83;;;4.40;99.90;;;;;;5024930;28;20146;-50
2021/01/14 10:56:01;;;;;;;24.02;13.85;;;4.40;99.90;;;;;;5045386;28;20063;-54
2021/01/14 10:58:28;;;;;;;12.02;7.20;;;4.50;99.90;;;;;;5031326;28;20049;-50
2021/01/14 11:00:55;;;;;;;8.57;5.63;;;4.70;99.90;;;;;;5031120;28;20042;-50
2021/01/14 11:03:29;;;;;;;8.52;4.97;;;4.80;99.90;;;;;;5027389;28;20183;-50
2021/01/14 11:06:01;;;;;;;13.60;8.05;;;4.90;99.90;;;;;;5030987;28;20486;-51
2021/01/14 11:08:44;;;;;;;14.57;8.10;;;5.00;99.90;;;;;;5043123;28;20677;-51
2021/01/14 11:11:22;;;;;;;15.00;9.18;;;5.00;99.90;;;;;;5032983;28;20384;-52
2021/01/14 11:13:50;;;;;;;17.55;8.60;;;5.10;99.90;;;;;;5034340;28;20056;-53
2021/01/14 11:16:27;;;;;;;7.30;5.32;;;5.20;99.90;;;;;;5028684;28;20049;-50
2021/01/14 11:18:56;;;;;;;19.80;7.63;;;5.30;99.90;;;;;;5030416;28;20111;-50
2021/01/14 11:21:32;;;;;;;26.42;12.18;;;5.30;99.90;;;;;;5034700;28;20045;-52
2021/01/14 11:24:00;;;;;;;42.60;26.00;;;5.30;99.90;;;;;;5030418;28;20119;-51
2021/01/14 11:26:28;;;;;;;42.17;23.73;;;5.20;99.90;;;;;;5023752;28;20475;-51
2021/01/14 11:28:56;;;;;;;6.82;4.53;;;5.10;99.90;;;;;;5027225;28;20057;-53
2021/01/14 11:31:24;;;;;;;10.05;4.63;;;5.30;99.90;;;;;;5028091;28;20053;-50
2021/01/14 11:33:51;;;;;;;8.63;5.38;;;5.40;99.90;;;;;;5032098;28;20045;-53
2021/01/14 11:36:20;;;;;;;9.77;4.15;;;5.50;99.90;;;;;;5030399;28;20054;-50
2021/01/14 11:38:51;;;;;;;4.90;2.60;;;5.60;99.90;;;;;;5030203;28;20046;-51
2021/01/14 11:41:18;;;;;;;12.25;3.63;;;5.60;99.90;;;;;;5029417;28;20851;-52
2021/01/14 11:43:44;;;;;;;8.30;3.38;;;5.60;99.90;;;;;;5033224;28;20065;-50
2021/01/14 11:46:14;;;;;;;8.68;3.72;;;5.70;99.90;;;;;;5028531;28;20053;-51
2021/01/14 11:48:41;;;;;;;13.15;3.25;;;5.70;99.90;;;;;;5015616;28;20072;-51
2021/01/14 11:51:07;;;;;;;4.82;1.70;;;5.80;99.90;;;;;;5026894;28;20530;-50
2021/01/14 11:53:37;;;;;;;7.03;3.78;;;5.90;99.90;;;;;;5019754;28;20056;-50
2021/01/14 11:56:05;;;;;;;12.98;7.50;;;6.00;99.90;;;;;;5021122;28;20463;-50
2021/01/14 11:58:32;;;;;;;10.77;5.60;;;6.00;99.90;;;;;;5025174;28;20054;-51
2021/01/14 12:00:59;;;;;;;24.50;13.95;;;5.90;99.90;;;;;;5024365;28;20486;-50
2021/01/14 12:03:26;;;;;;;34.55;21.70;;;6.00;99.90;;;;;;5030244;28;20072;-50
2021/01/14 12:05:53;;;;;;;34.30;22.30;;;6.00;99.90;;;;;;5031357;28;20634;-51
2021/01/14 12:08:19;;;;;;;21.35;11.07;;;5.90;99.90;;;;;;5026471;28;20050;-50
2021/01/14 12:10:46;;;;;;;15.63;8.77;;;5.90;99.90;;;;;;5019566;28;20076;-51
2021/01/14 12:13:12;;;;;;;18.15;11.57;;;6.00;99.90;;;;;;5031552;28;20410;-50
2021/01/14 12:15:39;;;;;;;23.65;14.45;;;6.10;99.90;;;;;;5030323;28;20045;-50
2021/01/14 12:18:05;;;;;;;16.20;9.13;;;6.10;99.90;;;;;;5031043;28;20049;-54
2021/01/14 12:20:32;;;;;;;24.25;14.80;;;6.20;99.90;;;;;;5028825;28;20058;-54
2021/01/14 12:22:59;;;;;;;46.70;26.88;;;6.10;99.90;;;;;;5016300;28;20539;-54
2021/01/14 12:25:25;;;;;;;32.58;18.08;;;6.00;99.90;;;;;;5026145;28;20049;-53
2021/01/14 12:27:52;;;;;;;23.05;15.02;;;6.00;99.90;;;;;;5030813;28;20053;-54
2021/01/14 12:30:19;;;;;;;17.90;10.57;;;6.00;99.90;;;;;;5020162;28;20062;-54
2021/01/14 12:32:46;;;;;;;31.17;18.30;;;6.10;99.90;;;;;;5021690;28;20045;-54
2021/01/14 12:35:12;;;;;;;36.65;22.85;;;6.10;99.90;;;;;;5032456;28;20053;-54
2021/01/14 12:37:40;;;;;;;24.40;17.00;;;6.10;99.90;;;;;;5027843;28;20123;-54
2021/01/14 12:40:08;;;;;;;32.58;21.23;;;6.20;99.90;;;;;;5022201;28;20041;-54
2021/01/14 12:42:35;;;;;;;29.27;17.95;;;6.20;99.90;;;;;;5028925;28;20684;-51
2021/01/14 12:45:02;;;;;;;33.75;20.15;;;6.20;99.90;;;;;;5027982;28;20486;-52
2021/01/14 12:47:29;;;;;;;38.10;19.42;;;6.20;99.90;;;;;;5021808;28;20065;-48
2021/01/14 12:49:55;;;;;;;37.55;22.17;;;6.30;99.90;;;;;;5021970;28;20479;-51
2021/01/14 12:52:22;;;;;;;28.00;18.05;;;6.30;99.90;;;;;;5020365;28;20395;-48